Time;durP1;ratioP1;P1;durP2;ratioP2;P2;SDS_P1;SDS_P2;PMS_P1;PMS_P2;Temp;Humidity;BMP_temperature;BMP_pressure;BME280_temperature;BME280_humidity;BME280_pressure;Samples;Min_cycle;Max_cycle;Signal;HPM_P1;HPM_P2
2022/07/04 00:01:15;;;;;;;15.73;12.25;;;;;;;24.33;49.73;99139.19;5126548;28;20108;-74
2022/07/04 00:03:43;;;;;;;12.55;9.73;;;;;;;24.30;49.68;99136.84;5126633;28;20357;-74
2022/07/04 00:06:10;;;;;;;10.25;8.25;;;;;;;24.30;49.58;99146.84;5126147;28;20064;-74
2022/07/04 00:08:38;;;;;;;9.48;8.10;;;;;;;24.20;49.94;99152.47;5126492;28;20093;-74
2022/07/04 00:11:05;;;;;;;11.30;8.02;;;;;;;24.13;50.02;99150.63;5126493;28;20104;-73
2022/07/04 00:13:33;;;;;;;7.72;6.68;;;;;;;24.12;50.19;99140.84;5126363;28;20104;-73
2022/07/04 00:16:00;;;;;;;6.45;5.38;;;;;;;24.14;50.09;99149.63;5125996;28;20105;-74
2022/07/04 00:18:27;;;;;;;14.00;11.48;;;;;;;24.15;50.20;99148.59;5126080;28;20261;-73
2022/07/04 00:20:54;;;;;;;9.10;7.18;;;;;;;23.90;50.85;99148.66;5125732;28;20060;-74
2022/07/04 00:23:22;;;;;;;6.93;6.00;;;;;;;23.93;50.71;99144.78;5126304;28;20063;-74
2022/07/04 00:25:50;;;;;;;5.88;4.97;;;;;;;23.97;50.60;99141.56;5126433;28;20113;-75
2022/07/04 00:28:17;;;;;;;8.35;4.28;;;;;;;24.00;50.43;99132.25;5125691;28;20055;-74
2022/07/04 00:30:44;;;;;;;4.90;3.42;;;;;;;23.97;50.20;99129.91;5126287;28;20055;-74
2022/07/04 00:33:13;;;;;;;4.82;3.13;;;;;;;23.94;50.38;99136.47;5126058;28;20056;-74
2022/07/04 00:35:40;;;;;;;4.18;2.85;;;;;;;23.81;50.40;99119.94;5126188;28;20051;-74
2022/07/04 00:38:07;;;;;;;4.78;3.47;;;;;;;23.85;50.59;99124.00;5125989;28;20063;-74
2022/07/04 00:40:35;;;;;;;6.63;3.25;;;;;;;23.84;50.42;99133.13;5125839;28;20059;-74
2022/07/04 00:43:04;;;;;;;4.30;3.13;;;;;;;23.72;50.55;99114.75;5125959;28;20261;-74
2022/07/04 00:45:32;;;;;;;3.17;2.50;;;;;;;23.78;50.59;99125.72;5125740;28;20104;-75
2022/07/04 00:47:59;;;;;;;4.25;2.70;;;;;;;23.81;50.40;99130.78;5125449;28;20109;-74
2022/07/04 00:50:27;;;;;;;4.68;3.83;;;;;;;23.76;50.36;99116.09;5125919;28;20319;-74
2022/07/04 00:52:55;;;;;;;9.85;7.50;;;;;;;23.77;50.43;99126.72;5125791;28;20055;-74
2022/07/04 00:55:23;;;;;;;17.83;14.38;;;;;;;23.82;50.31;99129.75;5126015;28;20077;-74
2022/07/04 00:57:50;;;;;;;13.93;12.40;;;;;;;23.69;50.29;99116.78;5125978;28;20052;-74
2022/07/04 01:00:19;;;;;;;12.02;10.23;;;;;;;23.82;50.29;99129.75;5125397;28;20056;-74
2022/07/04 01:02:47;;;;;;;14.90;11.63;;;;;;;23.80;50.54;99130.94;5125412;28;20108;-74
2022/07/04 01:05:15;;;;;;;13.68;11.35;;;;;;;23.79;50.49;99123.84;5125856;28;20052;-74
2022/07/04 17:53:51;;;;;;;5.95;4.45;;;;;;;25.85;48.09;99044.16;5103701;27;20937;-73
2022/07/04 17:56:18;;;;;;;9.02;6.97;;;;;;;25.89;48.20;99040.03;5102736;28;20320;-73
2022/07/04 17:58:45;;;;;;;4.55;3.63;;;;;;;25.92;48.11;99050.50;5102635;28;20198;-73
2022/07/04 18:01:12;;;;;;;6.43;4.30;;;;;;;25.99;48.13;99057.94;5102743;28;20056;-73
2022/07/04 18:03:40;;;;;;;7.57;6.13;;;;;;;26.06;48.23;99056.97;5102870;28;20059;-73
2022/07/04 18:06:07;;;;;;;4.47;3.05;;;;;;;26.13;48.10;99065.19;5102978;28;20212;-74
2022/07/04 18:08:35;;;;;;;5.88;2.63;;;;;;;26.17;48.24;99059.19;5118694;28;20052;-73
2022/07/04 18:11:06;;;;;;;3.97;2.60;;;;;;;26.21;48.38;99074.06;5102651;28;20060;-73
2022/07/04 18:13:33;;;;;;;2.95;2.33;;;;;;;26.25;48.30;99077.25;5102579;28;20056;-73
2022/07/04 18:16:00;;;;;;;3.90;2.80;;;;;;;26.24;48.45;99081.00;5102639;28;20052;-73
2022/07/04 18:18:28;;;;;;;3.13;2.28;;;;;;;26.29;48.29;99080.41;5102478;28;20075;-73
2022/07/04 18:20:55;;;;;;;3.88;2.30;;;;;;;24.28;48.29;98742.69;5102473;28;20079;-73
2022/07/04 18:23:23;;;;;;;5.20;3.53;;;;;;;26.35;48.17;99082.38;5102363;28;20049;-73
2022/07/04 18:25:50;;;;;;;5.15;3.15;;;;;;;26.31;48.08;99087.34;5102389;28;20052;-72
2022/07/04 18:28:20;;;;;;;3.10;2.20;;;;;;;26.31;47.92;99087.34;5102533;28;20067;-73
2022/07/04 18:30:47;;;;;;;4.72;3.05;;;;;;;26.29;48.36;99094.84;5102472;28;20212;-73
2022/07/04 18:33:15;;;;;;;4.10;2.92;;;;;;;26.25;48.10;99093.53;5102345;28;20063;-73
2022/07/04 18:35:43;;;;;;;5.03;3.58;;;;;;;26.20;48.29;99098.72;5102028;28;20347;-74
2022/07/04 18:38:12;;;;;;;3.40;2.40;;;;;;;26.14;48.18;99091.31;5102171;28;20036;-74
2022/07/04 18:43:26;;;;;;;4.85;3.22;;;;;;;26.13;48.66;99106.78;5102156;28;20051;-74
2022/07/04 18:45:54;;;;;;;3.40;2.47;;;;;;;26.01;48.77;99104.72;5102393;28;20056;-72
2022/07/04 18:48:24;;;;;;;3.38;1.98;;;;;;;25.73;48.95;99053.81;5101886;28;20052;-71
2022/07/04 18:50:51;;;;;;;3.42;2.50;;;;;;;26.06;49.08;99111.28;5102070;28;20049;-71
2022/07/04 18:53:19;;;;;;;5.40;2.38;;;;;;;25.97;49.86;99123.28;5101566;28;20056;-71
2022/07/04 18:55:47;;;;;;;4.10;3.50;;;;;;;25.98;49.65;99124.97;5102037;28;20056;-72
2022/07/04 18:58:15;;;;;;;6.25;3.45;;;;;;;25.95;49.78;99133.44;5101902;28;20067;-71
2022/07/04 19:00:44;;;;;;;4.35;2.55;;;;;;;25.96;49.80;99127.00;5101905;28;20312;-71
2022/07/04 19:03:13;;;;;;;3.78;2.42;;;;;;;25.88;49.88;99141.50;5099343;28;20344;-73
2022/07/04 19:05:41;;;;;;;3.50;2.55;;;;;;;25.88;50.12;99140.66;5087982;28;20063;-75
2022/07/04 19:08:10;;;;;;;4.40;2.15;;;;;;;25.77;50.30;99147.41;5088046;28;20056;-75
2022/07/04 19:10:39;;;;;;;3.55;2.38;;;;;;;25.72;50.51;99141.69;5087922;28;20056;-76
2022/07/04 19:13:10;;;;;;;3.17;2.30;;;;;;;25.57;50.33;99130.00;5087686;28;20049;-75
2022/07/04 19:15:40;;;;;;;2.90;2.10;;;;;;;25.64;50.97;99160.78;5087394;28;20040;-75
2022/07/04 19:18:10;;;;;;;3.03;2.00;;;;;;;25.60;50.89;99156.75;5088110;28;20075;-74
2022/07/04 19:20:37;;;;;;;3.10;2.20;;;;;;;25.54;51.29;99160.22;5088058;28;20056;-75
2022/07/04 19:23:08;;;;;;;4.72;2.85;;;;;;;25.57;51.46;99167.97;5087970;28;20060;-75
2022/07/04 19:25:36;;;;;;;3.70;2.45;;;;;;;25.08;51.63;99111.44;5087651;28;20056;-75
2022/07/04 19:28:03;;;;;;;3.42;2.28;;;;;;;25.43;51.52;99172.34;5086720;28;20286;-75
2022/07/04 19:30:31;;;;;;;3.88;2.20;;;;;;;25.43;51.54;99176.94;5087769;28;20063;-75
2022/07/04 19:32:58;;;;;;;4.50;2.22;;;;;;;25.41;51.45;99176.28;5087762;28;20052;-74
2022/07/04 19:35:27;;;;;;;4.18;2.40;;;;;;;25.38;51.77;99173.94;5087838;28;20056;-73
2022/07/04 19:37:54;;;;;;;4.75;2.35;;;;;;;25.26;52.07;99178.91;5087669;28;20064;-72
2022/07/04 19:40:22;;;;;;;2.88;1.88;;;;;;;25.22;52.46;99173.00;5087393;28;20329;-73
2022/07/04 19:42:50;;;;;;;3.20;2.13;;;;;;;25.20;52.68;99180.50;5087281;28;20063;-73
2022/07/04 19:45:18;;;;;;;4.40;2.38;;;;;;;25.25;52.75;99179.94;5087548;28;20062;-72
2022/07/04 19:47:45;;;;;;;3.10;2.22;;;;;;;25.16;53.40;99178.31;5087411;28;20110;-73
2022/07/04 19:50:13;;;;;;;4.25;2.50;;;;;;;24.81;53.84;99133.66;5087417;28;20056;-72
2022/07/04 19:52:41;;;;;;;3.65;2.35;;;;;;;25.08;53.66;99184.66;5086946;28;20048;-72
2022/07/04 19:55:12;;;;;;;4.05;2.35;;;;;;;25.05;53.60;99186.88;5087397;28;20308;-72
2022/07/04 19:57:43;;;;;;;3.83;2.88;;;;;;;25.05;53.38;99186.88;5087015;28;20044;-72
2022/07/04 20:00:13;;;;;;;4.72;2.38;;;;;;;25.03;53.30;99181.66;5087198;28;20067;-73
2022/07/04 20:02:41;;;;;;;4.68;2.53;;;;;;;24.84;53.83;99173.97;5087319;28;20063;-74
2022/07/04 20:05:10;;;;;;;4.50;2.65;;;;;;;24.91;54.26;99178.47;5085970;28;20052;-73
2022/07/04 20:07:38;;;;;;;4.65;3.20;;;;;;;24.82;54.82;99173.31;5087135;28;20064;-72
2022/07/04 20:10:08;;;;;;;3.50;2.75;;;;;;;24.82;55.10;99170.59;5087106;28;20057;-72
2022/07/04 20:12:36;;;;;;;5.70;4.13;;;;;;;24.67;55.98;99170.53;5086839;28;20048;-73
2022/07/04 20:15:04;;;;;;;5.93;4.20;;;;;;;24.60;56.42;99172.22;5086251;28;20056;-72
2022/07/04 20:17:32;;;;;;;4.38;3.35;;;;;;;24.73;55.18;99150.00;5086624;28;20063;-72
2022/07/04 20:20:03;;;;;;;6.43;4.95;;;;;;;24.67;56.97;99156.97;5086899;28;20056;-73
2022/07/04 20:22:30;;;;;;;6.03;5.07;;;;;;;24.41;56.70;99159.13;5086624;28;20232;-72
2022/07/04 20:24:59;;;;;;;6.03;4.28;;;;;;;24.52;56.88;99173.13;5086573;28;20200;-72
2022/07/04 20:27:28;;;;;;;6.68;3.22;;;;;;;24.51;56.55;99173.28;5086708;28;20064;-72
2022/07/04 20:29:56;;;;;;;3.30;2.30;;;;;;;24.58;56.08;99191.38;5086405;28;20339;-72
2022/07/04 20:32:23;;;;;;;3.30;2.50;;;;;;;24.57;56.20;99191.56;5086514;28;20052;-72
2022/07/04 20:34:59;;;;;;;3.75;2.53;;;;;;;24.52;56.64;99197.50;5086418;28;20335;-71
2022/07/04 20:37:27;;;;;;;4.18;3.22;;;;;;;24.48;55.88;99200.75;5086442;28;20063;-72
2022/07/04 20:39:54;;;;;;;4.10;2.97;;;;;;;24.32;55.72;99175.44;5086386;28;20056;-72
2022/07/04 20:42:22;;;;;;;5.07;4.05;;;;;;;24.41;56.21;99197.06;5086699;28;20052;-73
2022/07/04 20:44:51;;;;;;;6.22;4.93;;;;;;;24.10;56.16;99143.72;5086113;28;20053;-72
2022/07/04 20:47:19;;;;;;;5.10;3.60;;;;;;;24.42;57.01;99215.84;5086025;28;20048;-72
2022/07/04 20:49:47;;;;;;;4.63;3.60;;;;;;;24.36;56.93;99211.13;5086338;28;20235;-71
2022/07/04 20:52:15;;;;;;;3.80;2.70;;;;;;;24.33;56.35;99204.19;5085847;28;20064;-72
2022/07/04 20:54:43;;;;;;;5.05;3.30;;;;;;;24.33;56.02;99195.22;5086068;28;20189;-72
2022/07/04 20:57:11;;;;;;;4.18;2.92;;;;;;;24.31;56.15;99213.50;5086044;28;20082;-72
2022/07/04 20:59:39;;;;;;;4.03;3.10;;;;;;;23.91;56.37;99166.59;5085995;28;20052;-72
2022/07/04 21:02:10;;;;;;;4.55;2.63;;;;;;;24.23;56.57;99214.38;5086030;28;20305;-73
2022/07/04 21:04:39;;;;;;;3.95;2.70;;;;;;;24.18;56.42;99215.94;5085774;28;20216;-71
2022/07/04 21:07:07;;;;;;;3.30;2.10;;;;;;;24.14;56.16;99217.31;5085902;28;20056;-71
2022/07/04 21:09:36;;;;;;;3.85;2.60;;;;;;;23.96;56.24;99202.09;5086238;28;20300;-72
2022/07/04 21:12:04;;;;;;;4.18;2.85;;;;;;;24.13;55.82;99218.31;5085903;28;20052;-72
2022/07/04 21:14:32;;;;;;;5.70;2.20;;;;;;;23.69;56.10;99145.69;5085764;28;20052;-72
2022/07/04 21:16:59;;;;;;;5.72;2.88;;;;;;;24.08;56.02;99220.72;5085834;28;20059;-72
2022/07/04 21:19:28;;;;;;;3.47;2.38;;;;;;;24.04;56.08;99220.22;5085837;28;20312;-72
2022/07/04 21:21:56;;;;;;;3.63;2.33;;;;;;;24.09;55.93;99217.81;5086054;28;20193;-72
2022/07/04 21:24:24;;;;;;;4.30;2.60;;;;;;;24.02;56.27;99224.13;5085435;28;20052;-72
2022/07/04 21:26:51;;;;;;;5.18;2.33;;;;;;;23.97;56.42;99220.06;5085199;28;20057;-72
2022/07/04 21:29:19;;;;;;;3.75;2.60;;;;;;;23.88;57.26;99231.06;5085658;28;20056;-73
2022/07/04 21:31:46;;;;;;;3.45;2.20;;;;;;;23.93;56.86;99237.63;5085396;28;20048;-72
2022/07/04 21:34:14;;;;;;;3.95;2.83;;;;;;;23.97;56.55;99236.31;5085995;28;20052;-72
2022/07/04 21:36:44;;;;;;;3.47;2.70;;;;;;;23.98;56.56;99235.28;5085493;28;20189;-72
2022/07/04 21:39:11;;;;;;;3.22;2.20;;;;;;;23.91;56.70;99236.97;5085613;28;20056;-73
2022/07/04 21:41:38;;;;;;;4.65;2.65;;;;;;;23.89;56.92;99227.31;5085556;28;20309;-72
2022/07/04 21:44:06;;;;;;;4.30;2.17;;;;;;;23.81;57.14;99217.38;5085555;28;20052;-72
2022/07/04 21:46:33;;;;;;;4.40;3.15;;;;;;;23.78;57.88;99222.28;5085244;28;20056;-72
2022/07/04 21:49:01;;;;;;;4.38;3.10;;;;;;;23.21;58.37;99147.44;5085473;28;20057;-73
2022/07/04 21:51:28;;;;;;;4.85;2.80;;;;;;;23.62;58.47;99218.59;5085344;28;20075;-72
2022/07/04 21:53:57;;;;;;;3.50;2.55;;;;;;;23.60;58.53;99217.06;5085425;28;20059;-72
2022/07/04 21:56:24;;;;;;;5.15;2.88;;;;;;;23.60;58.56;99215.19;5085419;28;20063;-73
2022/07/04 21:58:52;;;;;;;3.40;2.08;;;;;;;23.53;58.82;99211.50;5085190;28;20052;-73
2022/07/04 22:01:19;;;;;;;3.40;2.17;;;;;;;23.50;58.83;99205.56;5085373;28;20068;-73
2022/07/04 22:03:47;;;;;;;3.70;2.42;;;;;;;23.49;58.66;99206.59;5085316;28;20052;-73
2022/07/04 22:06:14;;;;;;;4.70;2.53;;;;;;;23.43;59.17;99197.31;5085003;28;20206;-72
2022/07/04 22:08:41;;;;;;;5.43;2.70;;;;;;;23.50;59.15;99197.47;5085341;28;20056;-73
2022/07/04 22:11:10;;;;;;;4.75;3.30;;;;;;;23.43;59.26;99194.59;5085337;28;20056;-72
2022/07/04 22:13:38;;;;;;;5.20;2.50;;;;;;;23.43;59.09;99191.06;5085233;28;20079;-72
2022/07/04 22:16:06;;;;;;;2.83;2.13;;;;;;;23.42;58.83;99197.47;5085305;28;20056;-73
2022/07/04 22:18:34;;;;;;;3.80;2.17;;;;;;;23.44;58.94;99190.03;5085115;28;20208;-72
2022/07/04 22:21:01;;;;;;;3.65;2.13;;;;;;;23.45;58.93;99191.72;5085090;28;20064;-72
2022/07/04 22:23:29;;;;;;;4.45;2.72;;;;;;;23.39;58.96;99182.44;5085149;28;20056;-72
2022/07/04 22:25:57;;;;;;;3.13;2.45;;;;;;;23.42;58.96;99186.66;5085190;28;20059;-72
2022/07/04 22:28:26;;;;;;;3.40;2.60;;;;;;;23.48;58.51;99199.50;5084861;28;20073;-73
2022/07/04 22:30:53;;;;;;;3.38;2.47;;;;;;;23.46;58.99;99196.13;5084676;28;20052;-72
2022/07/04 22:33:21;;;;;;;3.50;2.65;;;;;;;23.33;59.26;99189.38;5085362;28;20052;-72
2022/07/04 22:35:49;;;;;;;4.20;2.92;;;;;;;23.36;59.45;99180.91;5085530;28;20056;-72
2022/07/04 22:38:16;;;;;;;3.10;2.30;;;;;;;23.39;59.20;99182.44;5085033;28;20068;-72
2022/07/04 22:40:43;;;;;;;3.63;2.60;;;;;;;23.33;59.29;99177.72;5088854;28;20068;-73
2022/07/04 22:43:11;;;;;;;3.40;2.50;;;;;;;23.31;58.95;99179.75;5087667;28;20066;-72
2022/07/04 22:45:40;;;;;;;2.75;2.35;;;;;;;23.27;58.99;99163.00;5088408;28;20052;-72
2022/07/04 22:48:07;;;;;;;3.63;2.75;;;;;;;23.26;59.23;99176.66;5088625;28;20057;-72
2022/07/04 22:51:10;;;;;;;3.65;2.05;;;;;;;23.29;59.16;99177.19;5088306;28;20056;-73
2022/07/04 22:56:04;;;;;;;5.18;2.78;;;;;;;23.33;58.68;99170.44;5044961;28;20415;-73
2022/07/04 22:58:32;;;;;;;5.97;3.03;;;;;;;23.27;59.13;99168.41;5088502;28;20056;-72
2022/07/04 23:01:00;;;;;;;4.03;2.50;;;;;;;23.33;59.02;99161.47;5088147;28;20056;-73
2022/07/04 23:03:27;;;;;;;3.85;2.85;;;;;;;23.27;59.12;99160.31;5088341;28;20056;-74
2022/07/04 23:05:55;;;;;;;3.38;2.33;;;;;;;23.18;60.06;99160.44;5088356;28;20212;-72
2022/07/04 23:08:23;;;;;;;4.03;2.80;;;;;;;23.02;60.24;99159.44;5088286;28;20219;-72
2022/07/04 23:10:50;;;;;;;4.88;3.20;;;;;;;23.00;60.37;99139.00;5088223;28;20052;-72
2022/07/04 23:13:17;;;;;;;4.25;2.75;;;;;;;23.03;60.25;99141.38;5087939;28;20220;-73
2022/07/04 23:15:45;;;;;;;5.60;2.53;;;;;;;23.05;60.06;99131.22;5088073;28;20060;-73
2022/07/04 23:18:13;;;;;;;4.20;3.05;;;;;;;23.18;59.61;99125.31;5088117;28;20212;-73
2022/07/04 23:20:41;;;;;;;3.75;2.60;;;;;;;23.14;59.46;99122.09;5088088;28;20060;-72
2022/07/04 23:23:09;;;;;;;5.38;2.88;;;;;;;23.04;60.22;99122.28;5087979;28;20068;-72
2022/07/04 23:25:36;;;;;;;3.67;2.63;;;;;;;23.13;59.68;99116.88;5087756;28;20224;-73
2022/07/04 23:28:04;;;;;;;3.28;2.55;;;;;;;23.17;59.84;99104.69;5087971;28;20057;-73
2022/07/04 23:30:31;;;;;;;5.05;2.92;;;;;;;23.17;59.60;99102.00;5087892;28;20063;-73
2022/07/04 23:32:59;;;;;;;4.25;3.13;;;;;;;23.19;59.66;99097.25;5087443;28;20056;-73
2022/07/04 23:35:28;;;;;;;5.20;3.72;;;;;;;23.21;59.48;99092.53;5087580;28;20243;-73
2022/07/04 23:37:55;;;;;;;5.70;4.07;;;;;;;23.19;59.73;99089.16;5088238;28;20048;-73
2022/07/04 23:40:23;;;;;;;4.75;3.25;;;;;;;23.23;59.18;99091.34;5087499;28;20053;-73
2022/07/04 23:42:50;;;;;;;5.57;3.80;;;;;;;22.85;58.87;99028.06;5087418;28;20064;-73
2022/07/04 23:45:17;;;;;;;4.18;3.20;;;;;;;23.27;58.77;99095.41;5087663;28;20317;-73
2022/07/04 23:47:45;;;;;;;5.00;3.45;;;;;;;23.23;59.13;99085.94;5086470;28;20056;-72
2022/07/04 23:50:12;;;;;;;4.57;3.42;;;;;;;23.24;58.99;99087.63;5087267;28;20052;-73
2022/07/04 23:52:41;;;;;;;6.20;5.20;;;;;;;23.14;59.93;99084.25;5087158;28;20060;-73
2022/07/04 23:55:09;;;;;;;6.05;4.45;;;;;;;22.99;59.80;99076.00;5086980;28;20056;-73
2022/07/04 23:57:37;;;;;;;6.10;3.90;;;;;;;23.02;60.05;99072.94;5087128;28;20060;-73
